Aérodrome :
LOGIN :

S'inscrire | Disclaimer

   EN    FR    IT 

 










Légende :    VFR   VFR Marginal   IFR   IFR Intensif   IFR Très Intensif
Visi : 
Plafond : 
>= 8 km
>= 3000ft
5 à 8 km
1000 à 3000 ft
1500m à 5 km
500 à 1000 ft
800 à 1500m
200 à 500 ft
< 800m
< 200 ft
Symboles :   Orages  Brouillard  Fortes neiges  Fortes précipitations  Vent > 20 kt
SIGMETs :   Divers  Orages  Givrage  Turbulence  Onde Orograph.  Cendres Volcan.







- Altitude de l'aérodrome : 2059 ft
- Code IATA : KZI


LGKZ - Filippos

DERNIER METAR :
  • 210150Z AUTO 01005KT //// // ////// 17/12 Q1021 RE//

METARs EXPIRÉS :
  • 210120Z AUTO 35005KT //// // ////// 18/12 Q1021 RE//
  • 210050Z AUTO 36005KT //// // ////// 17/12 Q1021 RE//
  • 210020Z AUTO 36005KT //// // ////// 18/12 Q1021 RE//
  • 202350Z AUTO 34005KT //// // ////// 18/11 Q1021 RE//
  • 202320Z AUTO 34005KT //// // ////// 19/11 Q1021 RE//

TAF N/A
Pas de NOTAMs connus pour ce terrain.



MET'MAP, la Météo Aéronautique d'un coup d'oeil ! - Copyright ORBIFLY Décembre 2007 - Disclaimer

ORBIFLY MET'MAP TEAM :

Programmation & Développement : Alexandra Zaïnal
Conception & Développement : Baudouin d'Aumeries
Co-Programmation & Développement : Marc-Olivier Méhu
Soutien technique & logistique : Manuel Goepfert

Contact : metmap@orbifly.com




SOURCES & CREDITS :

   NOAA